createdAt,value
2019-06-27T00:01:03.260Z,102311.45
2019-06-27T00:03:32.128Z,102312.76
2019-06-27T00:06:01.038Z,102314.03
2019-06-27T00:08:29.911Z,102313.33
2019-06-27T00:10:58.824Z,102314.69
2019-06-27T00:13:27.664Z,102323.58
2019-06-27T00:15:56.572Z,102317.37
2019-06-27T00:18:25.450Z,102321.48
2019-06-27T00:20:55.540Z,102324.23
2019-06-27T00:23:24.448Z,102328.87
2019-06-27T00:25:53.338Z,102330.55
2019-06-27T00:28:22.197Z,102330.98
2019-06-27T00:30:51.100Z,102324.92
2019-06-27T00:33:19.971Z,102327.72
2019-06-27T00:35:48.885Z,102328.73
2019-06-27T00:38:17.762Z,102327.16
2019-06-27T00:40:46.634Z,102327.38
2019-06-27T00:43:15.546Z,102323.97
2019-06-27T00:45:44.422Z,102319.55
2019-06-27T00:48:13.304Z,102321.58
2019-06-27T00:50:42.178Z,102328.73
2019-06-27T00:53:11.074Z,102319.55
2019-06-27T00:55:39.950Z,102310.95
2019-06-27T00:58:08.842Z,102309.44
2019-06-27T01:00:37.729Z,102311.70
2019-06-27T01:03:06.646Z,102312.11
2019-06-27T01:05:35.522Z,102313.15
2019-06-27T01:08:04.390Z,102316.53
2019-06-27T01:10:33.307Z,102323.60
2019-06-27T01:13:02.185Z,102316.91
2019-06-27T01:15:31.085Z,102321.23
2019-06-27T01:17:59.972Z,102320.73
2019-06-27T01:20:28.844Z,102319.33
2019-06-27T01:22:57.736Z,102314.06
2019-06-27T01:25:26.677Z,102315.31
2019-06-27T01:27:55.546Z,102316.09
2019-06-27T01:30:24.463Z,102318.33
2019-06-27T01:32:53.346Z,102317.91
2019-06-27T01:35:22.246Z,102321.11
2019-06-27T01:37:51.164Z,102325.78
2019-06-27T01:40:20.052Z,102333.69
2019-06-27T01:42:49.001Z,102331.36
2019-06-27T01:45:36.952Z,102329.06
2019-06-27T01:48:05.837Z,102340.31
2019-06-27T01:50:34.756Z,102333.24
2019-06-27T01:53:03.656Z,102339.24
2019-06-27T01:55:32.574Z,102337.98
2019-06-27T01:58:01.483Z,102340.31
2019-06-27T02:00:30.362Z,102337.06
2019-06-27T02:02:59.280Z,102342.77
2019-06-27T02:05:28.197Z,102336.62
2019-06-27T02:07:57.107Z,102336.02
2019-06-27T02:10:26.020Z,102337.84
2019-06-27T02:12:54.936Z,102339.96
2019-06-27T02:15:23.857Z,102339.09
2019-06-27T02:17:52.797Z,102347.08
2019-06-27T02:20:21.694Z,102345.25
2019-06-27T02:22:50.599Z,102347.02
2019-06-27T02:25:19.503Z,102347.41
2019-06-27T02:28:02.641Z,102347.74
2019-06-27T02:30:17.994Z,102346.23
2019-06-27T02:32:46.883Z,102357.70
2019-06-27T02:35:15.816Z,102350.70
2019-06-27T02:37:44.741Z,102367.52
2019-06-27T02:40:13.631Z,102369.18
2019-06-27T02:42:42.549Z,102375.81
2019-06-27T02:45:11.469Z,102368.35
2019-06-27T02:47:40.326Z,102379.42
2019-06-27T02:50:09.285Z,102371.09
2019-06-27T02:52:38.190Z,102374.02
2019-06-27T02:55:07.211Z,102371.45
2019-06-27T02:57:36.006Z,102370.55
2019-06-27T03:00:04.964Z,102372.61
2019-06-27T03:02:33.839Z,102372.10
2019-06-27T03:05:02.774Z,102372.90
2019-06-27T03:07:31.657Z,102374.62
2019-06-27T03:10:00.542Z,102374.41
2019-06-27T03:12:29.477Z,102375.57
2019-06-27T03:14:58.341Z,102381.77
2019-06-27T03:17:27.260Z,102378.55
2019-06-27T03:19:56.130Z,102377.77
2019-06-27T03:22:25.023Z,102383.11
2019-06-27T03:24:53.927Z,102376.94
2019-06-27T03:27:22.839Z,102374.70
2019-06-27T03:29:51.746Z,102373.05
2019-06-27T03:32:20.658Z,102375.57
2019-06-27T03:34:49.559Z,102368.71
2019-06-27T03:37:18.470Z,102370.80
2019-06-27T03:39:47.358Z,102370.05
2019-06-27T03:42:16.276Z,102363.91
2019-06-27T03:44:45.185Z,102365.28
2019-06-27T03:47:14.071Z,102367.88
2019-06-27T03:49:42.975Z,102368.09
2019-06-27T03:52:11.869Z,102369.83
2019-06-27T03:54:40.792Z,102365.86
2019-06-27T03:57:09.767Z,102376.03
2019-06-27T03:59:38.679Z,102378.08
2019-06-27T04:02:07.674Z,102378.47
2019-06-27T04:04:36.562Z,102384.59
2019-06-27T04:07:05.737Z,102378.34
2019-06-27T04:09:34.574Z,102388.34
2019-06-27T04:12:03.512Z,102380.77
2019-06-27T04:14:32.422Z,102381.83
2019-06-27T04:17:01.353Z,102386.19
2019-06-27T04:19:30.233Z,102388.98
2019-06-27T04:21:59.150Z,102382.87
2019-06-27T04:24:28.074Z,102390.73
2019-06-27T04:26:57.038Z,102379.77
2019-06-27T04:29:33.450Z,102388.27
2019-06-27T04:31:54.856Z,102391.53
2019-06-27T04:34:23.755Z,102392.59
2019-06-27T04:36:52.659Z,102385.08
2019-06-27T04:39:21.561Z,102391.71
2019-06-27T04:41:50.481Z,102390.50
2019-06-27T04:44:19.380Z,102392.73
2019-06-27T04:46:48.305Z,102397.88
2019-06-27T04:49:17.215Z,102399.94
2019-06-27T04:51:46.108Z,102399.28
2019-06-27T04:54:15.009Z,102397.70
2019-06-27T04:56:43.911Z,102394.62
2019-06-27T04:59:12.811Z,102397.35
2019-06-27T05:01:41.750Z,102404.88
2019-06-27T05:04:10.644Z,102403.40
2019-06-27T05:06:39.564Z,102408.30
2019-06-27T05:09:08.477Z,102406.02
2019-06-27T05:11:37.380Z,102411.12
2019-06-27T05:14:06.401Z,102407.80
2019-06-27T05:16:35.300Z,102409.39
2019-06-27T05:19:04.292Z,102410.85
2019-06-27T05:21:33.141Z,102404.78
2019-06-27T05:24:02.047Z,102411.12
2019-06-27T05:26:30.966Z,102412.60
2019-06-27T05:28:59.874Z,102413.00
2019-06-27T05:31:28.778Z,102408.91
2019-06-27T05:33:57.690Z,102409.82
2019-06-27T05:36:26.566Z,102407.55
2019-06-27T05:38:55.480Z,102414.22
2019-06-27T05:41:24.429Z,102418.52
2019-06-27T05:43:53.353Z,102419.13
2019-06-27T05:46:22.242Z,102414.73
2019-06-27T05:48:51.171Z,102423.68
2019-06-27T05:51:20.138Z,102418.84
2019-06-27T05:53:49.039Z,102423.89
2019-06-27T05:56:17.935Z,102422.06
2019-06-27T05:58:46.861Z,102435.89
2019-06-27T06:01:15.794Z,102432.12
2019-06-27T06:03:44.690Z,102433.25
2019-06-27T06:06:13.585Z,102439.20
2019-06-27T06:08:42.463Z,102435.08
2019-06-27T06:11:11.377Z,102434.83
2019-06-27T06:13:40.241Z,102434.28
2019-06-27T06:16:09.288Z,102435.98
2019-06-27T06:18:38.195Z,102433.03
2019-06-27T06:21:07.342Z,102430.23
2019-06-27T06:23:36.100Z,102434.84
2019-06-27T06:26:05.167Z,102437.98
2019-06-27T06:28:34.039Z,102436.90
2019-06-27T06:31:02.944Z,102442.12
2019-06-27T06:33:31.848Z,102431.47
2019-06-27T06:36:00.774Z,102436.66
2019-06-27T06:38:29.742Z,102438.04
2019-06-27T06:40:58.634Z,102432.00
2019-06-27T06:43:27.552Z,102440.96
2019-06-27T06:45:56.444Z,102442.31
2019-06-27T06:48:25.392Z,102434.82
2019-06-27T06:50:54.378Z,102439.33
2019-06-27T06:53:23.385Z,102441.69
2019-06-27T06:55:52.212Z,102436.33
2019-06-27T06:58:21.137Z,102443.05
2019-06-27T07:01:00.837Z,102443.95
2019-06-27T07:03:18.981Z,102446.84
2019-06-27T07:05:47.860Z,102448.38
2019-06-27T07:08:16.781Z,102447.93
2019-06-27T07:10:45.674Z,102447.95
2019-06-27T07:13:14.583Z,102453.73
2019-06-27T07:15:43.473Z,102445.49
2019-06-27T07:18:12.391Z,102448.31
2019-06-27T07:20:41.339Z,102457.22
2019-06-27T07:23:10.268Z,102451.42
2019-06-27T07:25:39.201Z,102449.74
2019-06-27T07:28:08.159Z,102444.59
2019-06-27T07:30:37.060Z,102444.44
2019-06-27T07:33:06.043Z,102443.95
2019-06-27T07:35:34.960Z,102445.75
2019-06-27T07:38:03.914Z,102440.47
2019-06-27T07:40:32.821Z,102443.42
2019-06-27T07:43:01.714Z,102442.63
2019-06-27T07:45:30.629Z,102443.34
2019-06-27T07:47:59.548Z,102448.34
2019-06-27T07:50:28.428Z,102443.48
2019-06-27T07:52:57.370Z,102443.05
2019-06-27T07:55:26.300Z,102450.17
2019-06-27T07:57:55.194Z,102442.06
2019-06-27T08:00:24.075Z,102441.99
2019-06-27T08:02:53.018Z,102445.45
2019-06-27T08:05:21.929Z,102441.20
2019-06-27T08:07:50.842Z,102438.94
2019-06-27T08:10:19.762Z,102438.55
2019-06-27T08:12:48.661Z,102442.23
2019-06-27T08:15:17.572Z,102431.28
2019-06-27T08:17:46.455Z,102429.60
2019-06-27T08:20:15.358Z,102428.47
2019-06-27T08:22:44.243Z,102431.24
2019-06-27T08:25:13.160Z,102433.78
2019-06-27T08:27:42.087Z,102427.91
2019-06-27T08:30:10.991Z,102419.11
2019-06-27T08:32:39.905Z,102423.95
2019-06-27T08:35:08.831Z,102423.66
2019-06-27T08:37:37.739Z,102414.27
2019-06-27T08:40:06.776Z,102421.03
2019-06-27T08:42:35.717Z,102421.39
2019-06-27T08:45:04.920Z,102422.53
2019-06-27T08:47:33.816Z,102418.42
2019-06-27T08:50:02.853Z,102421.39
2019-06-27T08:52:31.966Z,102419.11
2019-06-27T08:55:00.882Z,102419.30
2019-06-27T08:57:29.781Z,102423.39
2019-06-27T08:59:58.688Z,102413.83
2019-06-27T09:02:27.681Z,102413.73
2019-06-27T09:04:56.484Z,102418.80
2019-06-27T09:07:25.370Z,102408.80
2019-06-27T09:09:54.282Z,102411.55
2019-06-27T09:12:23.254Z,102411.08
2019-06-27T09:14:52.101Z,102401.92
2019-06-27T09:17:20.991Z,102405.25
2019-06-27T09:19:49.914Z,102412.17
2019-06-27T09:22:18.820Z,102407.41
2019-06-27T09:24:47.737Z,102406.94
2019-06-27T09:27:16.651Z,102411.88
2019-06-27T09:29:45.562Z,102414.20
2019-06-27T09:32:24.902Z,102414.16
2019-06-27T09:34:43.357Z,102405.73
2019-06-27T09:37:12.279Z,102409.42
2019-06-27T09:39:41.289Z,102412.28
2019-06-27T09:42:10.118Z,102410.05
2019-06-27T09:44:42.094Z,102409.17
2019-06-27T09:47:08.059Z,102405.83
2019-06-27T09:49:36.978Z,102398.80
2019-06-27T09:52:05.976Z,102397.00
2019-06-27T09:54:34.870Z,102403.59
2019-06-27T09:57:03.762Z,102398.45
2019-06-27T09:59:32.645Z,102398.77
2019-06-27T10:02:01.547Z,102400.47
2019-06-27T10:04:30.456Z,102399.27
2019-06-27T10:06:59.356Z,102396.67
2019-06-27T10:09:28.279Z,102395.49
2019-06-27T10:11:57.203Z,102396.96
2019-06-27T10:14:26.071Z,102401.20
2019-06-27T10:16:58.474Z,102394.82
2019-06-27T10:19:23.894Z,102388.31
2019-06-27T10:21:52.818Z,102386.33
2019-06-27T10:24:21.744Z,102391.12
2019-06-27T10:26:50.680Z,102384.56
2019-06-27T10:29:19.733Z,102389.44
2019-06-27T10:31:48.636Z,102387.04
2019-06-27T10:34:17.562Z,102393.09
2019-06-27T10:36:46.497Z,102391.84
2019-06-27T10:39:15.433Z,102392.50
2019-06-27T10:41:44.279Z,102385.63
2019-06-27T10:44:13.272Z,102383.73
2019-06-27T10:46:42.184Z,102390.28
2019-06-27T10:49:11.069Z,102384.49
2019-06-27T10:51:39.992Z,102385.98
2019-06-27T10:54:08.909Z,102374.91
2019-06-27T10:56:39.982Z,102372.12
2019-06-27T10:59:06.785Z,102376.38
2019-06-27T11:01:35.702Z,102379.20
2019-06-27T11:04:04.591Z,102372.44
2019-06-27T11:06:33.520Z,102379.73
2019-06-27T11:09:02.480Z,102372.16
2019-06-27T11:11:31.509Z,102370.28
2019-06-27T11:14:00.271Z,102369.30
2019-06-27T11:16:29.181Z,102367.34
2019-06-27T11:18:58.093Z,102367.44
2019-06-27T11:21:27.002Z,102366.39
2019-06-27T11:23:55.922Z,102363.98
2019-06-27T11:26:24.875Z,102355.59
2019-06-27T11:28:53.765Z,102358.83
2019-06-27T11:31:22.680Z,102358.45
2019-06-27T11:33:51.565Z,102357.75
2019-06-27T11:36:20.492Z,102345.06
2019-06-27T11:38:49.408Z,102350.28
2019-06-27T11:41:18.287Z,102346.49
2019-06-27T11:43:47.180Z,102355.09
2019-06-27T11:46:16.093Z,102351.04
2019-06-27T11:48:44.993Z,102343.50
2019-06-27T11:51:13.898Z,102349.55
2019-06-27T11:53:42.814Z,102333.70
2019-06-27T11:56:11.744Z,102345.25
2019-06-27T11:58:40.670Z,102334.97
2019-06-27T12:01:09.695Z,102339.78
2019-06-27T12:03:48.942Z,102336.72
2019-06-27T12:06:07.605Z,102338.36
2019-06-27T12:08:36.480Z,102334.84
2019-06-27T12:11:05.522Z,102337.83
2019-06-27T12:13:34.423Z,102332.16
2019-06-27T12:16:03.394Z,102329.84
2019-06-27T12:18:32.374Z,102328.94
2019-06-27T12:21:01.246Z,102320.20
2019-06-27T12:23:30.168Z,102315.40
2019-06-27T12:25:59.074Z,102315.55
2019-06-27T12:28:28.006Z,102311.70
2019-06-27T12:30:56.890Z,102323.29
2019-06-27T12:33:25.800Z,102316.38
2019-06-27T12:35:54.710Z,102302.88
2019-06-27T12:38:23.612Z,102311.66
2019-06-27T12:40:52.500Z,102307.11
2019-06-27T12:43:21.398Z,102302.89
2019-06-27T12:45:50.288Z,102302.89
2019-06-27T12:48:19.198Z,102311.09
2019-06-27T12:50:48.101Z,102309.38
2019-06-27T12:53:17.007Z,102304.95
2019-06-27T12:55:45.933Z,102306.27
2019-06-27T12:58:15.327Z,102299.03
2019-06-27T13:00:44.550Z,102294.71
2019-06-27T13:03:13.745Z,102299.22
2019-06-27T13:05:43.191Z,102297.38
2019-06-27T13:08:15.217Z,102300.39
2019-06-27T13:10:44.810Z,102296.11
2019-06-27T13:13:13.893Z,102286.15
2019-06-27T13:15:43.140Z,102289.45
2019-06-27T13:18:14.408Z,102288.59
2019-06-27T13:20:57.219Z,102287.45
2019-06-27T13:23:12.687Z,102281.64
2019-06-27T13:25:43.850Z,102284.19
2019-06-27T13:28:13.005Z,102279.91
2019-06-27T13:30:42.378Z,102277.97
2019-06-27T13:33:14.006Z,102276.06
2019-06-27T13:35:43.193Z,102274.29
2019-06-27T13:38:12.186Z,102268.66
2019-06-27T13:40:41.314Z,102273.94
2019-06-27T13:43:10.697Z,102282.27
2019-06-27T13:45:39.807Z,102274.80
2019-06-27T13:48:09.018Z,102272.19
2019-06-27T13:50:38.123Z,102277.92
2019-06-27T13:53:07.834Z,102276.14
2019-06-27T13:55:36.751Z,102274.56
2019-06-27T13:58:11.426Z,102278.78
2019-06-27T14:00:44.882Z,102263.42
2019-06-27T14:03:13.834Z,102268.12
2019-06-27T14:05:42.745Z,102267.37
2019-06-27T14:08:11.726Z,102270.05
2019-06-27T14:10:40.628Z,102264.72
2019-06-27T14:13:09.587Z,102267.08
2019-06-27T14:15:38.469Z,102260.10
2019-06-27T14:18:07.508Z,102257.65
2019-06-27T14:20:36.438Z,102261.59
2019-06-27T14:23:05.509Z,102257.42
2019-06-27T14:25:34.386Z,102261.86
2019-06-27T14:28:03.448Z,102260.77
2019-06-27T14:30:32.266Z,102257.15
2019-06-27T14:33:01.714Z,102251.14
2019-06-27T14:35:30.562Z,102254.22
2019-06-27T14:37:59.509Z,102248.23
2019-06-27T14:40:28.391Z,102246.84
2019-06-27T14:42:57.305Z,102248.88
2019-06-27T14:45:26.234Z,102248.97
2019-06-27T14:47:55.118Z,102253.60
2019-06-27T14:50:24.068Z,102240.63
2019-06-27T14:52:52.949Z,102242.80
2019-06-27T14:55:22.473Z,102247.37
2019-06-27T14:57:51.405Z,102245.45
2019-06-27T15:00:20.289Z,102253.70
2019-06-27T15:02:49.162Z,102258.08
2019-06-27T15:05:32.072Z,102258.09
2019-06-27T15:07:46.960Z,102254.45
2019-06-27T15:10:15.875Z,102256.25
2019-06-27T15:12:56.493Z,102257.09
2019-06-27T15:15:13.696Z,102254.33
2019-06-27T15:17:42.610Z,102251.96
2019-06-27T15:20:11.510Z,102251.02
2019-06-27T15:22:40.416Z,102250.89
2019-06-27T15:25:09.440Z,102239.30
2019-06-27T15:27:38.373Z,102257.80
2019-06-27T15:30:07.432Z,102254.77
2019-06-27T15:32:36.346Z,102246.55
2019-06-27T15:35:05.464Z,102255.17
2019-06-27T15:37:34.369Z,102248.44
2019-06-27T15:40:03.350Z,102253.05
2019-06-27T15:42:32.255Z,102248.34
2019-06-27T15:45:01.170Z,102246.67
2019-06-27T15:47:30.087Z,102242.83
2019-06-27T15:49:59.002Z,102239.80
2019-06-27T15:52:27.901Z,102244.34
2019-06-27T15:54:56.793Z,102243.05
2019-06-27T15:57:25.710Z,102235.88
2019-06-27T15:59:54.633Z,102239.72
2019-06-27T16:02:23.496Z,102247.19
2019-06-27T16:04:52.405Z,102238.72
2019-06-27T16:07:21.286Z,102240.66
2019-06-27T16:09:50.185Z,102245.61
2019-06-27T16:12:19.064Z,102244.05
2019-06-27T16:14:47.977Z,102243.32
2019-06-27T16:17:16.857Z,102233.73
2019-06-27T16:19:45.766Z,102243.78
2019-06-27T16:22:14.653Z,102236.35
2019-06-27T16:24:43.564Z,102236.50
2019-06-27T16:27:12.470Z,102243.49
2019-06-27T16:29:41.375Z,102236.75
2019-06-27T16:32:10.254Z,102236.22
2019-06-27T16:34:39.175Z,102231.17
2019-06-27T16:37:08.197Z,102239.04
2019-06-27T16:39:38.981Z,102234.09
2019-06-27T16:42:06.101Z,102233.33
2019-06-27T16:44:34.967Z,102232.63
2019-06-27T16:47:03.862Z,102229.85
2019-06-27T16:49:32.747Z,102228.93
2019-06-27T16:52:01.694Z,102225.16
2019-06-27T16:54:30.528Z,102227.94
2019-06-27T16:56:59.438Z,102227.21
2019-06-27T16:59:28.325Z,102226.16
2019-06-27T17:01:57.217Z,102232.72
2019-06-27T17:04:26.163Z,102219.20
2019-06-27T17:06:55.045Z,102228.87
2019-06-27T17:09:23.936Z,102222.85
2019-06-27T17:11:52.852Z,102234.72
2019-06-27T17:14:21.751Z,102234.39
2019-06-27T17:16:50.628Z,102234.53
2019-06-27T17:19:19.529Z,102233.00
2019-06-27T17:21:48.416Z,102228.92
2019-06-27T17:24:17.324Z,102233.94
2019-06-27T17:26:46.209Z,102234.72
2019-06-27T17:29:15.110Z,102238.14
2019-06-27T17:31:44.026Z,102240.00
2019-06-27T17:34:14.235Z,102234.25
2019-06-27T17:36:56.561Z,102247.28
2019-06-27T17:39:10.722Z,102242.65
2019-06-27T17:41:39.620Z,102236.25
2019-06-27T17:44:08.627Z,102244.34
2019-06-27T17:46:37.511Z,102240.95
2019-06-27T17:49:06.548Z,102251.54
2019-06-27T17:51:35.441Z,102248.51
2019-06-27T17:54:04.440Z,102246.98
2019-06-27T17:56:33.349Z,102248.28
2019-06-27T17:59:02.289Z,102245.96
2019-06-27T18:01:31.463Z,102247.34
2019-06-27T18:04:00.376Z,102238.66
2019-06-27T18:06:29.320Z,102242.45
2019-06-27T18:08:58.245Z,102244.48
2019-06-27T18:11:27.121Z,102238.90
2019-06-27T18:13:56.037Z,102243.69
2019-06-27T18:16:24.928Z,102240.28
2019-06-27T18:18:53.834Z,102244.28
2019-06-27T18:21:22.727Z,102242.46
2019-06-27T18:23:51.657Z,102236.59
2019-06-27T18:26:20.526Z,102241.71
2019-06-27T18:28:49.421Z,102243.17
2019-06-27T18:31:18.320Z,102236.89
2019-06-27T18:33:47.217Z,102240.92
2019-06-27T18:36:16.097Z,102236.13
2019-06-27T18:38:45.029Z,102236.91
2019-06-27T18:41:13.912Z,102236.03
2019-06-27T18:43:42.881Z,102231.97
2019-06-27T18:46:11.771Z,102227.34
2019-06-27T18:48:40.674Z,102229.52
2019-06-27T18:51:09.703Z,102224.36
2019-06-27T18:53:38.629Z,102226.66
2019-06-27T18:56:07.674Z,102228.89
2019-06-27T18:58:36.521Z,102223.78
2019-06-27T19:01:05.534Z,102218.49
2019-06-27T19:03:34.411Z,102222.34
2019-06-27T19:06:03.409Z,102226.64
2019-06-27T19:08:32.272Z,102225.61
2019-06-27T19:11:01.299Z,102227.17
2019-06-27T19:13:30.065Z,102233.97
2019-06-27T19:15:58.966Z,102228.45
2019-06-27T19:18:48.564Z,102233.83
2019-06-27T19:21:26.962Z,102239.02
2019-06-27T19:24:04.217Z,102235.28
2019-06-27T19:26:33.102Z,102235.61
2019-06-27T19:29:02.505Z,102235.59
2019-06-27T19:31:30.945Z,102241.29
2019-06-27T19:33:59.820Z,102235.59
2019-06-27T19:36:28.734Z,102245.94
2019-06-27T19:38:57.654Z,102244.91
2019-06-27T19:41:26.538Z,102243.86
2019-06-27T19:43:55.445Z,102249.91
2019-06-27T19:46:24.355Z,102247.48
2019-06-27T19:48:53.269Z,102255.89
2019-06-27T19:51:22.267Z,102249.17
2019-06-27T19:53:51.847Z,102254.98
2019-06-27T19:56:20.892Z,102264.75
2019-06-27T19:58:49.816Z,102259.57
2019-06-27T20:01:18.731Z,102267.61
2019-06-27T20:03:47.631Z,102262.22
2019-06-27T20:06:16.565Z,102268.04
2019-06-27T20:08:45.477Z,102267.11
2019-06-27T20:11:14.389Z,102268.09
2019-06-27T20:13:43.304Z,102268.52
2019-06-27T20:16:12.203Z,102270.21
2019-06-27T20:18:41.120Z,102270.52
2019-06-27T20:21:10.127Z,102273.48
2019-06-27T20:23:39.009Z,102274.48
2019-06-27T20:26:07.916Z,102271.95
2019-06-27T20:28:36.802Z,102277.43
2019-06-27T20:31:05.821Z,102275.84
2019-06-27T20:33:34.704Z,102281.67
2019-06-27T20:36:03.599Z,102275.47
2019-06-27T20:38:35.185Z,102282.28
2019-06-27T20:41:01.400Z,102281.73
2019-06-27T20:43:30.296Z,102281.00
2019-06-27T20:45:59.198Z,102277.58
2019-06-27T20:48:28.077Z,102280.45
2019-06-27T20:50:57.024Z,102281.93
2019-06-27T20:53:25.897Z,102281.91
2019-06-27T20:55:54.813Z,102282.29
2019-06-27T20:58:23.686Z,102278.73
2019-06-27T21:00:52.596Z,102272.41
2019-06-27T21:03:21.518Z,102277.77
2019-06-27T21:05:50.414Z,102275.53
2019-06-27T21:08:19.294Z,102283.94
2019-06-27T21:10:48.183Z,102277.94
2019-06-27T21:13:17.086Z,102283.30
2019-06-27T21:15:46.011Z,102274.92
2019-06-27T21:18:14.903Z,102277.99
2019-06-27T21:20:43.828Z,102279.30
2019-06-27T21:23:12.713Z,102276.45
2019-06-27T21:25:41.625Z,102271.48
2019-06-27T21:28:10.552Z,102281.47
2019-06-27T21:30:39.468Z,102279.20
2019-06-27T21:33:08.464Z,102285.81
2019-06-27T21:35:37.374Z,102279.89
2019-06-27T21:38:06.266Z,102279.89
2019-06-27T21:40:35.181Z,102277.84
2019-06-27T21:43:04.075Z,102283.17
2019-06-27T21:45:32.976Z,102283.56
2019-06-27T21:48:01.971Z,102280.97
2019-06-27T21:50:30.803Z,102279.52
2019-06-27T21:52:59.679Z,102278.54
2019-06-27T21:55:28.570Z,102272.88
2019-06-27T21:57:59.981Z,102274.59
2019-06-27T22:00:26.971Z,102279.52
2019-06-27T22:02:55.874Z,102279.39
2019-06-27T22:05:24.784Z,102276.13
2019-06-27T22:07:53.859Z,102278.31
2019-06-27T22:10:22.567Z,102280.19
2019-06-27T22:12:51.470Z,102286.22
2019-06-27T22:15:20.392Z,102280.56
2019-06-27T22:17:49.282Z,102276.45
2019-06-27T22:20:18.191Z,102269.80
2019-06-27T22:22:47.090Z,102273.72
2019-06-27T22:25:16.029Z,102274.58
2019-06-27T22:27:44.934Z,102274.57
2019-06-27T22:30:13.841Z,102272.41
2019-06-27T22:32:42.777Z,102270.11
2019-06-27T22:35:11.683Z,102268.02
2019-06-27T22:37:58.546Z,102273.21
2019-06-27T22:40:45.660Z,102272.62
2019-06-27T22:43:32.467Z,102261.77
2019-06-27T22:46:18.970Z,102265.09
2019-06-27T22:48:47.067Z,102263.50
2019-06-27T22:51:33.858Z,102263.50
2019-06-27T22:54:03.181Z,102253.88
2019-06-27T22:56:32.095Z,102259.11
2019-06-27T22:59:01.017Z,102254.84
2019-06-27T23:01:29.906Z,102258.02
2019-06-27T23:03:58.817Z,102258.80
2019-06-27T23:06:27.719Z,102261.90
2019-06-27T23:08:56.626Z,102258.93
2019-06-27T23:11:25.536Z,102255.64
2019-06-27T23:13:54.446Z,102257.18
2019-06-27T23:16:23.343Z,102257.13
2019-06-27T23:18:52.243Z,102256.18
2019-06-27T23:21:21.145Z,102259.22
2019-06-27T23:23:50.031Z,102250.99
2019-06-27T23:26:18.909Z,102253.59
2019-06-27T23:28:47.834Z,102249.89
2019-06-27T23:31:16.751Z,102258.44
2019-06-27T23:33:45.680Z,102254.54
2019-06-27T23:36:14.565Z,102250.94
2019-06-27T23:38:43.475Z,102249.88
2019-06-27T23:41:12.378Z,102252.61
2019-06-27T23:43:41.284Z,102257.17
2019-06-27T23:46:29.320Z,102254.64
2019-06-27T23:48:58.288Z,102253.77
2019-06-27T23:51:27.142Z,102250.54
2019-06-27T23:53:56.097Z,102257.91
2019-06-27T23:56:24.973Z,102259.84
2019-06-27T23:58:53.868Z,102259.09
